Time;durP1;ratioP1;P1;durP2;ratioP2;P2;SDS_P1;SDS_P2;PMS_P1;PMS_P2;Temp;Humidity;BMP_temperature;BMP_pressure;BME280_temperature;BME280_humidity;BME280_pressure;Samples;Min_cycle;Max_cycle;Signal;HPM_P1;HPM_P2
2021/08/03 00:01:15;;;;;;;10.63;4.47;;;15.90;99.90;;;;;;5092108;28;20676;-79
2021/08/03 00:03:51;;;;;;;6.60;4.00;;;16.00;99.90;;;;;;5093799;28;20652;-78
2021/08/03 00:06:18;;;;;;;7.30;4.37;;;16.00;99.90;;;;;;5093063;28;20312;-78
2021/08/03 00:08:49;;;;;;;6.83;4.20;;;15.90;99.90;;;;;;5093082;28;20388;-79
2021/08/03 00:11:17;;;;;;;7.60;4.87;;;15.90;99.90;;;;;;5091634;28;20233;-79
2021/08/03 00:13:44;;;;;;;6.30;3.67;;;15.90;99.90;;;;;;5102231;28;20288;-79
2021/08/03 00:16:13;;;;;;;8.23;4.27;;;15.90;99.90;;;;;;5110064;28;20226;-79
2021/08/03 00:18:41;;;;;;;9.00;4.10;;;15.80;99.90;;;;;;5098150;28;20199;-78
2021/08/03 00:21:09;;;;;;;6.10;3.40;;;15.70;99.90;;;;;;5099062;28;20289;-79
2021/08/03 00:23:41;;;;;;;5.83;3.70;;;15.80;99.90;;;;;;5096289;28;20205;-80
2021/08/03 00:26:11;;;;;;;9.03;3.93;;;15.80;99.90;;;;;;5096447;28;20210;-79
2021/08/03 00:28:38;;;;;;;6.83;4.60;;;15.80;99.90;;;;;;5105321;28;20549;-80
2021/08/03 00:31:06;;;;;;;5.27;4.23;;;15.90;99.90;;;;;;5116330;28;20204;-80
2021/08/03 00:33:34;;;;;;;6.47;4.17;;;15.90;99.90;;;;;;5116420;28;20294;-79
2021/08/03 00:36:01;;;;;;;7.53;4.90;;;15.80;99.90;;;;;;5116505;28;20281;-79
2021/08/03 00:38:29;;;;;;;8.70;4.47;;;15.70;99.90;;;;;;5116590;28;20233;-79
2021/08/03 00:41:00;;;;;;;7.50;4.50;;;15.60;99.90;;;;;;5116635;28;20250;-78
2021/08/03 00:43:27;;;;;;;4.97;4.33;;;15.60;99.90;;;;;;5115956;28;20273;-79
2021/08/03 00:45:54;;;;;;;6.43;4.13;;;15.60;99.90;;;;;;5116010;28;20226;-78
2021/08/03 00:48:20;;;;;;;6.50;4.83;;;15.70;99.90;;;;;;5114913;28;20631;-77
2021/08/03 00:50:49;;;;;;;6.60;4.57;;;15.70;99.90;;;;;;5116022;28;20216;-77
2021/08/03 00:53:16;;;;;;;7.60;4.90;;;15.70;99.90;;;;;;5114281;28;20301;-77
2021/08/03 00:55:43;;;;;;;8.20;4.87;;;15.60;99.90;;;;;;5115728;28;20221;-78
2021/08/03 00:58:11;;;;;;;9.33;4.97;;;15.70;99.90;;;;;;5115188;28;20290;-77
2021/08/03 01:00:38;;;;;;;7.37;5.03;;;15.70;99.90;;;;;;5112567;28;20230;-77
2021/08/03 01:03:05;;;;;;;10.60;5.03;;;15.60;99.90;;;;;;5104901;28;20281;-77
2021/08/03 01:05:39;;;;;;;13.43;5.67;;;15.60;99.90;;;;;;5115549;28;20224;-76
2021/08/03 01:08:15;;;;;;;9.60;5.90;;;15.60;99.90;;;;;;5115342;28;20297;-76
2021/08/03 01:10:52;;;;;;;6.37;5.17;;;15.50;99.90;;;;;;5115099;28;20738;-76
2021/08/03 01:13:27;;;;;;;13.23;5.50;;;15.30;99.90;;;;;;5115185;28;20684;-76
2021/08/03 01:15:56;;;;;;;12.07;5.23;;;15.20;99.90;;;;;;5115497;28;20871;-76
2021/08/03 01:18:32;;;;;;;10.60;4.77;;;14.90;99.90;;;;;;5115288;28;20279;-76
2021/08/03 01:21:27;;;;;;;13.73;4.70;;;14.80;99.90;;;;;;5115272;28;20197;-76
2021/08/03 01:24:23;;;;;;;7.47;5.03;;;14.80;99.90;;;;;;5115178;28;20230;-76
2021/08/03 01:27:06;;;;;;;9.20;4.60;;;14.80;99.90;;;;;;5095999;28;20222;-76
2021/08/03 01:29:34;;;;;;;9.50;5.07;;;14.90;99.90;;;;;;5099652;28;20742;-76
2021/08/03 01:32:06;;;;;;;7.17;5.60;;;15.00;99.90;;;;;;5115064;28;20212;-76
2021/08/03 01:34:37;;;;;;;11.73;6.00;;;15.00;99.90;;;;;;5101607;28;20202;-76
2021/08/03 01:37:06;;;;;;;13.47;6.10;;;15.00;99.90;;;;;;5113788;28;20285;-76
2021/08/03 01:39:37;;;;;;;7.40;4.97;;;14.90;99.90;;;;;;5113975;28;20191;-75
2021/08/03 01:42:06;;;;;;;6.53;5.20;;;14.90;99.90;;;;;;5096974;28;20298;-75
2021/08/03 01:44:36;;;;;;;14.87;5.67;;;14.90;99.90;;;;;;5100316;28;20195;-76
2021/08/03 01:47:05;;;;;;;8.23;5.87;;;15.00;99.90;;;;;;5107497;28;20226;-76
2021/08/03 01:49:36;;;;;;;10.97;6.00;;;14.90;99.90;;;;;;5108093;28;20289;-76
2021/08/03 01:52:06;;;;;;;7.90;5.10;;;14.80;99.90;;;;;;5105901;28;20301;-75
2021/08/03 01:54:35;;;;;;;8.90;4.60;;;14.60;99.90;;;;;;5107370;28;20208;-75
2021/08/03 01:57:02;;;;;;;7.40;4.70;;;14.50;99.90;;;;;;5113986;28;20198;-75
2021/08/03 01:59:30;;;;;;;9.33;4.97;;;14.40;99.90;;;;;;5114720;28;20297;-75
2021/08/03 02:02:00;;;;;;;7.20;4.77;;;14.40;99.90;;;;;;5110878;28;20290;-75
2021/08/03 02:04:29;;;;;;;12.07;5.53;;;14.20;99.90;;;;;;5100643;28;20233;-75
2021/08/03 02:06:56;;;;;;;13.47;4.80;;;14.30;99.90;;;;;;5114021;28;20313;-75
2021/08/03 02:09:24;;;;;;;6.50;4.90;;;14.20;99.90;;;;;;5114198;28;20201;-75
2021/08/03 02:11:52;;;;;;;10.37;5.10;;;14.10;99.90;;;;;;5112884;28;20197;-75
2021/08/03 02:14:21;;;;;;;8.97;5.27;;;14.20;99.90;;;;;;5106388;28;20590;-75
2021/08/03 02:16:48;;;;;;;9.33;5.10;;;14.10;99.90;;;;;;5095672;28;20282;-76
2021/08/03 02:19:17;;;;;;;7.17;5.03;;;14.10;99.90;;;;;;5101578;28;20205;-75
2021/08/03 02:21:45;;;;;;;7.70;5.10;;;14.00;99.90;;;;;;5113719;28;20202;-75
2021/08/03 02:24:12;;;;;;;12.17;5.20;;;13.90;99.90;;;;;;5114094;28;20289;-75
2021/08/03 02:26:39;;;;;;;9.70;4.90;;;13.80;99.90;;;;;;5114066;28;20228;-75
2021/08/03 02:29:07;;;;;;;7.57;4.90;;;13.70;99.90;;;;;;5114243;28;20292;-75
2021/08/03 02:31:41;;;;;;;6.03;4.90;;;13.80;99.90;;;;;;5113488;28;20225;-75
2021/08/03 02:34:14;;;;;;;10.03;5.27;;;13.80;99.90;;;;;;5113981;28;20957;-75
2021/08/03 02:36:46;;;;;;;7.63;5.20;;;13.90;99.90;;;;;;5113094;28;20284;-75
2021/08/03 02:39:14;;;;;;;14.97;5.73;;;14.00;99.90;;;;;;5096976;28;20205;-75
2021/08/03 02:41:43;;;;;;;11.27;5.90;;;14.00;99.90;;;;;;5110745;28;20281;-76
2021/08/03 02:44:10;;;;;;;11.37;5.30;;;13.90;99.90;;;;;;5113975;28;20620;-75
2021/08/03 02:46:39;;;;;;;8.30;5.67;;;13.90;99.90;;;;;;5109928;28;20232;-75
2021/08/03 02:49:08;;;;;;;10.23;6.53;;;13.70;99.90;;;;;;5096190;28;20243;-75
2021/08/03 02:51:38;;;;;;;13.33;6.10;;;13.60;99.90;;;;;;5107572;28;20201;-74
2021/08/03 02:54:15;;;;;;;9.93;5.93;;;13.50;99.90;;;;;;5092911;28;20233;-74
2021/08/03 02:56:43;;;;;;;15.23;6.37;;;13.50;99.90;;;;;;5099026;28;20277;-74
2021/08/03 02:59:13;;;;;;;13.27;6.63;;;13.40;99.90;;;;;;5112664;28;20220;-75
2021/08/03 03:01:42;;;;;;;12.27;6.10;;;13.40;99.90;;;;;;5097902;28;20203;-74
2021/08/03 03:04:15;;;;;;;10.53;7.43;;;13.30;99.90;;;;;;5098881;28;20198;-74
2021/08/03 03:06:48;;;;;;;10.57;6.17;;;13.40;99.90;;;;;;5101529;28;20306;-75
2021/08/03 03:09:20;;;;;;;11.53;6.43;;;13.40;99.90;;;;;;5103259;28;20290;-75
2021/08/03 03:11:47;;;;;;;10.83;6.93;;;13.50;99.90;;;;;;5095327;28;20633;-75
2021/08/03 03:14:15;;;;;;;13.73;7.27;;;13.40;99.90;;;;;;5098604;28;20681;-75
2021/08/03 03:16:43;;;;;;;14.80;7.27;;;13.50;99.90;;;;;;5100212;28;20201;-74
2021/08/03 03:19:11;;;;;;;12.90;7.37;;;13.50;99.90;;;;;;5111033;28;20204;-75
2021/08/03 03:21:38;;;;;;;16.73;8.23;;;13.40;99.90;;;;;;5113227;28;20301;-74
2021/08/03 03:24:06;;;;;;;11.43;7.90;;;13.40;99.90;;;;;;5112686;28;20194;-75
2021/08/03 03:26:36;;;;;;;17.17;8.80;;;13.40;99.90;;;;;;5103529;28;20230;-74
2021/08/03 03:29:05;;;;;;;13.03;8.13;;;13.30;99.90;;;;;;5108686;28;20198;-75
2021/08/03 03:31:32;;;;;;;15.60;8.50;;;13.50;99.90;;;;;;5104758;28;20199;-75
2021/08/03 03:34:03;;;;;;;17.10;8.77;;;13.50;99.90;;;;;;5107030;28;20675;-75
2021/08/03 03:36:32;;;;;;;16.23;8.53;;;13.30;99.90;;;;;;5113037;28;20617;-75
2021/08/03 03:39:01;;;;;;;14.23;8.23;;;13.20;99.90;;;;;;5099439;28;20209;-75
2021/08/03 03:41:29;;;;;;;14.43;8.63;;;13.10;99.90;;;;;;5098544;28;20711;-75
2021/08/03 03:43:57;;;;;;;15.77;8.33;;;13.00;99.90;;;;;;5100333;28;20199;-75
2021/08/03 03:46:31;;;;;;;17.30;8.27;;;13.10;99.90;;;;;;5092264;28;20225;-75
2021/08/03 03:49:06;;;;;;;19.47;9.00;;;13.10;99.90;;;;;;5096649;28;20206;-75
2021/08/03 03:51:37;;;;;;;16.67;9.40;;;13.10;99.90;;;;;;5110938;28;20197;-75
2021/08/03 03:54:08;;;;;;;16.47;9.47;;;13.10;99.90;;;;;;5096517;28;20202;-75
2021/08/03 03:56:40;;;;;;;16.27;9.60;;;13.10;99.90;;;;;;5096812;28;20215;-75
2021/08/03 03:59:12;;;;;;;19.73;9.67;;;13.10;99.90;;;;;;5096729;28;20282;-75
2021/08/03 04:01:41;;;;;;;15.37;9.27;;;13.10;99.90;;;;;;5096222;28;20652;-75
2021/08/03 04:04:11;;;;;;;19.33;9.70;;;13.10;99.90;;;;;;5096633;28;20198;-75
2021/08/03 04:06:39;;;;;;;17.13;8.67;;;13.20;99.90;;;;;;5096018;28;20222;-75
2021/08/03 04:09:16;;;;;;;16.23;9.00;;;13.20;99.90;;;;;;5096585;28;20227;-75
2021/08/03 04:11:44;;;;;;;16.93;9.27;;;13.20;99.90;;;;;;5096360;28;20290;-74
2021/08/03 04:14:16;;;;;;;20.00;8.97;;;13.10;99.90;;;;;;5096265;28;20215;-75
2021/08/03 04:16:43;;;;;;;19.87;9.07;;;13.20;99.90;;;;;;5104588;28;20210;-75
2021/08/03 04:19:10;;;;;;;13.93;8.57;;;13.10;99.90;;;;;;5096419;28;20198;-75
2021/08/03 04:21:37;;;;;;;15.90;8.53;;;13.10;99.90;;;;;;5096528;28;20198;-75
2021/08/03 04:24:04;;;;;;;21.53;9.53;;;13.10;99.90;;;;;;5095903;28;20207;-75
2021/08/03 04:26:32;;;;;;;19.10;9.70;;;13.10;99.90;;;;;;5096187;28;20241;-75
2021/08/03 04:28:58;;;;;;;17.83;9.83;;;13.30;99.90;;;;;;5096039;28;20195;-75
2021/08/03 04:31:27;;;;;;;19.70;9.57;;;13.40;99.90;;;;;;5096154;28;20197;-75
2021/08/03 04:33:53;;;;;;;18.27;10.63;;;13.50;99.90;;;;;;5098025;28;20615;-75
2021/08/03 04:36:20;;;;;;;18.10;9.97;;;13.50;99.90;;;;;;5115976;28;20234;-75
2021/08/03 04:38:47;;;;;;;19.57;9.87;;;13.50;99.90;;;;;;5115834;28;20280;-75
2021/08/03 04:41:14;;;;;;;18.17;9.23;;;13.50;99.90;;;;;;5115909;28;20289;-76
2021/08/03 04:43:42;;;;;;;22.27;10.83;;;13.60;99.90;;;;;;5116054;28;20283;-75
2021/08/03 04:46:10;;;;;;;19.53;9.60;;;13.50;99.90;;;;;;5116161;28;20223;-75
2021/08/03 04:48:38;;;;;;;16.00;9.67;;;13.60;99.90;;;;;;5116124;28;20197;-75
2021/08/03 04:51:06;;;;;;;16.60;9.97;;;13.70;99.90;;;;;;5111066;28;20199;-76
2021/08/03 04:53:33;;;;;;;17.93;10.43;;;13.70;99.90;;;;;;5108156;28;20226;-75
2021/08/03 04:56:00;;;;;;;19.20;10.03;;;13.80;99.90;;;;;;5095744;28;20296;-75
2021/08/03 04:58:27;;;;;;;26.00;9.27;;;13.90;99.90;;;;;;5104831;28;20289;-75
2021/08/03 05:00:54;;;;;;;21.33;9.87;;;14.00;99.90;;;;;;5100770;28;20615;-75
2021/08/03 05:03:21;;;;;;;19.37;9.57;;;14.20;99.90;;;;;;5095450;28;20270;-75
2021/08/03 05:05:49;;;;;;;15.57;10.00;;;14.20;99.90;;;;;;5102000;28;20195;-75
2021/08/03 05:08:16;;;;;;;17.23;8.80;;;14.20;99.90;;;;;;5108750;28;20222;-75
2021/08/03 05:10:43;;;;;;;19.07;9.43;;;14.20;99.90;;;;;;5095584;28;20290;-75
2021/08/03 05:13:10;;;;;;;19.00;9.27;;;14.10;99.90;;;;;;5103197;28;20198;-75
2021/08/03 05:15:37;;;;;;;18.23;8.33;;;14.10;99.90;;;;;;5095395;28;20240;-75
2021/08/03 05:18:04;;;;;;;26.17;9.67;;;14.10;99.90;;;;;;5095476;28;20205;-75
2021/08/03 05:20:31;;;;;;;18.97;8.87;;;14.20;99.90;;;;;;5101397;28;20195;-75
2021/08/03 05:22:59;;;;;;;20.47;9.57;;;14.20;99.90;;;;;;5094747;28;20293;-75
2021/08/03 05:25:26;;;;;;;19.63;10.13;;;14.20;99.90;;;;;;5100874;28;20289;-75
2021/08/03 05:27:53;;;;;;;20.23;9.50;;;14.20;99.90;;;;;;5094868;28;20236;-75
2021/08/03 05:30:20;;;;;;;27.40;9.80;;;14.30;99.90;;;;;;5098474;28;20190;-75
2021/08/03 05:32:47;;;;;;;19.70;8.50;;;14.30;99.90;;;;;;5108187;28;20297;-75
2021/08/03 05:35:14;;;;;;;13.83;8.67;;;14.40;99.90;;;;;;5100704;28;20502;-75
2021/08/03 05:37:41;;;;;;;16.63;8.33;;;14.40;99.90;;;;;;5097391;28;20205;-75
2021/08/03 05:40:12;;;;;;;14.63;8.40;;;14.30;99.90;;;;;;5107191;28;20201;-75
2021/08/03 05:42:39;;;;;;;16.43;8.10;;;14.40;99.90;;;;;;5100361;28;20199;-75
2021/08/03 05:45:07;;;;;;;16.83;7.83;;;14.50;99.90;;;;;;5094355;28;20294;-76
2021/08/03 05:47:34;;;;;;;20.93;8.03;;;14.50;99.90;;;;;;5092890;28;20219;-75
2021/08/03 05:50:02;;;;;;;13.13;7.50;;;14.40;99.90;;;;;;5099632;28;20194;-75
2021/08/03 05:52:29;;;;;;;13.77;6.77;;;14.50;99.90;;;;;;5102896;28;20207;-75
2021/08/03 05:54:56;;;;;;;15.90;7.43;;;14.60;99.90;;;;;;5094209;28;20243;-75
2021/08/03 05:57:24;;;;;;;10.97;6.47;;;14.80;99.90;;;;;;5094274;28;20234;-75
2021/08/03 05:59:51;;;;;;;13.47;6.53;;;14.80;99.90;;;;;;5094198;28;20202;-75
2021/08/03 06:02:18;;;;;;;12.77;6.63;;;14.80;99.90;;;;;;5094340;28;20198;-76
2021/08/03 06:04:45;;;;;;;11.03;7.00;;;14.80;99.90;;;;;;5094262;28;20242;-76
2021/08/03 06:07:15;;;;;;;15.07;7.07;;;15.00;99.90;;;;;;5094418;28;20229;-76
2021/08/03 06:09:42;;;;;;;11.17;7.00;;;15.00;99.90;;;;;;5104785;28;20281;-75
2021/08/03 06:12:11;;;;;;;11.87;7.43;;;15.20;99.90;;;;;;5114032;28;20297;-76
2021/08/03 06:14:42;;;;;;;12.90;6.93;;;15.40;99.90;;;;;;5110467;28;20229;-76
2021/08/03 06:17:10;;;;;;;10.73;6.73;;;15.60;99.90;;;;;;5113852;28;20198;-76
2021/08/03 06:19:42;;;;;;;13.73;7.17;;;15.80;99.90;;;;;;5114280;28;20205;-76
2021/08/03 06:22:11;;;;;;;17.67;7.60;;;15.50;99.90;;;;;;5113876;28;20208;-76
2021/08/03 06:24:39;;;;;;;10.83;6.47;;;15.50;99.90;;;;;;5113862;28;20531;-76
2021/08/03 06:27:08;;;;;;;10.83;6.80;;;15.50;99.90;;;;;;5113919;28;20228;-76
2021/08/03 06:29:38;;;;;;;15.83;7.00;;;15.60;99.90;;;;;;5113600;28;20202;-76
2021/08/03 06:32:11;;;;;;;13.87;7.07;;;15.70;99.90;;;;;;5113396;28;20209;-76
2021/08/03 06:34:43;;;;;;;12.93;7.57;;;15.70;99.90;;;;;;5111967;28;20205;-76
2021/08/03 06:37:14;;;;;;;13.47;7.13;;;15.70;99.90;;;;;;5109878;28;20289;-76
2021/08/03 06:39:42;;;;;;;10.47;7.07;;;16.00;99.90;;;;;;5113508;28;20277;-76
2021/08/03 06:42:17;;;;;;;17.03;7.63;;;16.10;99.90;;;;;;5111069;28;20197;-76
2021/08/03 06:44:50;;;;;;;11.87;7.50;;;16.30;99.90;;;;;;5105323;28;20206;-76
2021/08/03 06:47:23;;;;;;;13.50;7.30;;;16.50;99.90;;;;;;5113243;28;20328;-76
2021/08/03 06:49:53;;;;;;;13.33;6.57;;;16.70;99.90;;;;;;5113430;28;20209;-77
2021/08/03 06:52:20;;;;;;;10.40;6.77;;;16.80;99.90;;;;;;5103187;28;20207;-77
2021/08/03 06:54:50;;;;;;;14.27;6.77;;;16.90;99.90;;;;;;5093312;28;20207;-78
2021/08/03 06:57:17;;;;;;;13.27;5.33;;;16.80;99.90;;;;;;5108080;28;20198;-78
2021/08/03 06:59:48;;;;;;;14.67;6.77;;;16.60;99.90;;;;;;5113234;28;20202;-77
2021/08/03 07:02:23;;;;;;;11.83;5.67;;;17.00;99.90;;;;;;5113726;28;20309;-78
2021/08/03 07:04:58;;;;;;;13.77;6.13;;;17.50;99.90;;;;;;5110672;28;20201;-77
2021/08/03 07:07:26;;;;;;;8.87;5.70;;;17.70;99.90;;;;;;5112965;28;20700;-77
2021/08/03 07:09:55;;;;;;;9.77;5.80;;;18.00;99.90;;;;;;5113004;28;20202;-77
2021/08/03 07:12:23;;;;;;;10.60;5.50;;;18.20;99.90;;;;;;5113251;28;20205;-77
2021/08/03 07:14:51;;;;;;;9.53;5.60;;;18.40;99.90;;;;;;5112843;28;20231;-77
2021/08/03 07:17:19;;;;;;;9.13;5.37;;;18.50;99.90;;;;;;5101182;28;20225;-77
2021/08/03 07:19:46;;;;;;;8.70;5.10;;;18.50;99.90;;;;;;5113247;28;20646;-77
2021/08/03 07:22:16;;;;;;;7.73;5.37;;;18.40;99.90;;;;;;5112596;28;20281;-77
2021/08/03 07:24:44;;;;;;;9.90;5.60;;;18.90;99.90;;;;;;5113278;28;20285;-78
2021/08/03 07:27:11;;;;;;;9.83;5.87;;;19.30;99.90;;;;;;5112651;28;20222;-77
2021/08/03 07:29:38;;;;;;;10.50;5.97;;;19.80;99.90;;;;;;5112873;28;20197;-77
2021/08/03 07:32:05;;;;;;;11.53;6.00;;;19.90;99.90;;;;;;5112707;28;20296;-77
2021/08/03 07:34:34;;;;;;;6.60;4.77;;;19.90;99.90;;;;;;5113084;28;20198;-77
2021/08/03 07:37:00;;;;;;;8.73;5.47;;;20.10;99.90;;;;;;5111395;28;20627;-77
2021/08/03 07:39:27;;;;;;;7.20;4.77;;;20.10;99.90;;;;;;5111587;28;20194;-77
2021/08/03 07:41:55;;;;;;;6.97;5.10;;;20.30;99.90;;;;;;5111109;28;20209;-77
2021/08/03 07:44:22;;;;;;;9.17;4.93;;;20.60;99.90;;;;;;5111142;28;20247;-77
2021/08/03 07:46:49;;;;;;;12.63;5.00;;;20.20;99.90;;;;;;5105905;28;20226;-78
2021/08/03 07:49:18;;;;;;;8.50;5.07;;;19.80;99.90;;;;;;5108931;28;20735;-78
2021/08/03 07:51:46;;;;;;;7.37;4.97;;;19.60;99.90;;;;;;5107568;28;20290;-78
2021/08/03 07:54:13;;;;;;;8.17;5.10;;;19.60;99.90;;;;;;5093758;28;20203;-78
2021/08/03 07:56:40;;;;;;;6.50;5.03;;;19.50;99.90;;;;;;5092712;28;20191;-78
2021/08/03 07:59:11;;;;;;;8.63;4.60;;;19.70;99.90;;;;;;5096492;28;20213;-77
2021/08/03 08:01:38;;;;;;;7.63;5.30;;;20.30;99.90;;;;;;5099260;28;20209;-78
2021/08/03 08:04:05;;;;;;;7.27;4.70;;;21.40;99.90;;;;;;5103119;28;20227;-78
2021/08/03 08:06:32;;;;;;;8.07;4.83;;;22.50;99.90;;;;;;5093214;28;20198;-78
2021/08/03 08:09:00;;;;;;;11.75;5.63;;;23.20;99.90;;;;;;5097104;28;20223;-79
2021/08/03 08:11:27;;;;;;;10.15;5.45;;;23.00;99.90;;;;;;5099933;28;20229;-78
2021/08/03 08:13:54;;;;;;;10.52;5.68;;;23.60;99.90;;;;;;5101524;28;20309;-78
2021/08/03 08:16:21;;;;;;;9.20;5.38;;;24.00;99.90;;;;;;5100665;28;20199;-78
2021/08/03 08:18:48;;;;;;;8.68;5.50;;;24.40;99.90;;;;;;5106233;28;20277;-78
2021/08/03 08:21:14;;;;;;;15.40;5.97;;;25.30;99.90;;;;;;5102946;28;20234;-77
2021/08/03 08:23:41;;;;;;;8.68;4.93;;;25.60;99.90;;;;;;5095359;28;20703;-78
2021/08/03 08:26:09;;;;;;;8.82;5.22;;;25.50;99.90;;;;;;5096998;28;20313;-78
2021/08/03 08:28:36;;;;;;;10.73;5.63;;;25.20;99.90;;;;;;5097243;28;20238;-78
2021/08/03 08:31:03;;;;;;;7.20;5.35;;;24.90;99.90;;;;;;5092335;28;20667;-78
2021/08/03 08:33:30;;;;;;;14.38;5.20;;;24.90;99.90;;;;;;5092354;28;20701;-78
2021/08/03 08:35:57;;;;;;;7.45;4.70;;;25.20;99.90;;;;;;5096162;28;20306;-78
2021/08/03 08:38:24;;;;;;;7.55;4.78;;;25.20;99.90;;;;;;5101892;28;20194;-79
2021/08/03 08:40:53;;;;;;;8.65;4.07;;;26.40;99.90;;;;;;5097496;28;20553;-78
2021/08/03 08:43:22;;;;;;;7.90;4.60;;;28.00;99.90;;;;;;5097251;28;20203;-78
2021/08/03 08:45:49;;;;;;;8.63;4.30;;;29.60;99.90;;;;;;5109565;28;20202;-79
2021/08/03 08:48:20;;;;;;;7.07;3.78;;;31.80;99.90;;;;;;5116321;28;20729;-79
2021/08/03 08:50:47;;;;;;;5.95;3.40;;;33.40;99.90;;;;;;5112342;28;20208;-78
2021/08/03 08:53:14;;;;;;;8.13;3.58;;;34.60;99.90;;;;;;5114192;28;20280;-80
2021/08/03 08:55:42;;;;;;;5.60;3.63;;;35.30;99.90;;;;;;5115977;28;20296;-79
2021/08/03 08:58:09;;;;;;;4.38;3.20;;;35.60;99.90;;;;;;5115252;28;20194;-79
2021/08/03 09:00:37;;;;;;;5.45;3.58;;;35.50;99.90;;;;;;5113978;28;20569;-79
2021/08/03 09:03:04;;;;;;;5.22;3.00;;;35.20;99.90;;;;;;5114849;28;20194;-78
2021/08/03 09:05:32;;;;;;;4.25;2.90;;;34.00;99.90;;;;;;5115578;28;20281;-78
2021/08/03 09:08:01;;;;;;;4.78;3.20;;;32.70;99.90;;;;;;5114297;28;20225;-79
2021/08/03 09:10:46;;;;;;;8.32;3.25;;;30.80;99.90;;;;;;5115124;28;20693;-79
2021/08/03 09:13:14;;;;;;;3.67;2.65;;;29.90;99.90;;;;;;5115196;28;20198;-78
2021/08/03 09:15:44;;;;;;;5.88;2.60;;;28.40;99.90;;;;;;5113492;28;20562;-78
2021/08/03 09:18:22;;;;;;;3.45;2.60;;;26.80;99.90;;;;;;5113259;28;20238;-79
2021/08/03 09:20:49;;;;;;;6.55;2.78;;;27.30;99.90;;;;;;5108160;28;20203;-79
2021/08/03 09:23:17;;;;;;;5.53;3.30;;;27.80;99.90;;;;;;5109973;28;20289;-79
2021/08/03 09:25:56;;;;;;;5.13;3.03;;;28.90;99.90;;;;;;5108562;28;20723;-79
2021/08/03 09:28:24;;;;;;;5.10;2.30;;;30.50;99.90;;;;;;5114721;28;20324;-80
2021/08/03 09:30:54;;;;;;;5.45;2.60;;;30.70;99.90;;;;;;5108879;28;20281;-79
2021/08/03 09:33:23;;;;;;;8.45;3.00;;;28.70;99.90;;;;;;5115311;28;20469;-79
2021/08/03 09:35:50;;;;;;;7.10;2.97;;;27.10;99.90;;;;;;5114700;28;20285;-79
2021/08/03 09:38:19;;;;;;;5.60;2.58;;;27.70;99.90;;;;;;5114945;28;20697;-78
2021/08/03 09:40:47;;;;;;;4.03;2.70;;;28.20;99.90;;;;;;5110342;28;20201;-80
2021/08/03 09:43:16;;;;;;;5.05;2.90;;;28.60;99.90;;;;;;5115406;28;20599;-80
2021/08/03 09:46:01;;;;;;;4.78;2.63;;;29.30;99.90;;;;;;5106860;28;20194;-79
2021/08/03 09:48:30;;;;;;;3.90;2.28;;;30.30;99.90;;;;;;5107785;28;20226;-79
2021/08/03 09:50:59;;;;;;;8.50;2.90;;;32.70;99.90;;;;;;5111833;28;20210;-79
2021/08/03 09:53:40;;;;;;;9.10;3.00;;;32.10;99.90;;;;;;5102903;28;20195;-80
2021/08/03 09:56:10;;;;;;;7.70;3.22;;;31.30;99.90;;;;;;5114646;28;20245;-80
2021/08/03 09:58:50;;;;;;;6.72;2.78;;;32.30;99.90;;;;;;5101665;28;20289;-79
2021/08/03 10:01:30;;;;;;;4.78;2.72;;;33.30;99.90;;;;;;5105307;28;20304;-80
2021/08/03 10:03:59;;;;;;;6.72;2.70;;;34.80;99.90;;;;;;5114873;28;20202;-80
2021/08/03 10:06:27;;;;;;;7.55;2.95;;;35.60;99.90;;;;;;5114335;28;20288;-80
2021/08/03 10:08:55;;;;;;;5.68;2.83;;;36.40;99.90;;;;;;5114926;28;20228;-80
2021/08/03 10:11:23;;;;;;;4.30;2.80;;;36.20;99.90;;;;;;5111356;28;20206;-80
2021/08/03 10:13:51;;;;;;;5.13;2.88;;;36.30;99.90;;;;;;5114443;28;20206;-80
2021/08/03 10:16:18;;;;;;;3.50;2.58;;;36.00;99.90;;;;;;5114614;28;20284;-80
2021/08/03 10:18:49;;;;;;;6.95;2.90;;;34.30;99.90;;;;;;5114225;28;20655;-80
2021/08/03 10:21:23;;;;;;;4.25;2.28;;;34.70;99.90;;;;;;5113366;28;20202;-80
2021/08/03 10:23:51;;;;;;;8.93;2.15;;;34.80;98.80;;;;;;5113212;28;20289;-81
2021/08/03 10:26:18;;;;;;;5.95;2.50;;;34.00;96.80;;;;;;5113679;28;20293;-79
2021/08/03 10:28:48;;;;;;;4.65;2.78;;;32.60;97.40;;;;;;5113171;28;20221;-81
2021/08/03 10:31:42;;;;;;;5.43;2.38;;;32.30;99.20;;;;;;5113471;28;20190;-80
2021/08/03 10:34:11;;;;;;;5.47;3.00;;;31.70;99.90;;;;;;5113362;28;20255;-82
2021/08/03 10:36:57;;;;;;;6.78;3.60;;;30.50;99.90;;;;;;5112581;28;20202;-80
2021/08/03 10:39:25;;;;;;;6.05;3.55;;;29.60;99.90;;;;;;5093722;28;20233;-80
2021/08/03 10:42:12;;;;;;;5.80;2.70;;;29.50;99.90;;;;;;5094124;28;20256;-80
2021/08/03 10:44:45;;;;;;;5.55;3.03;;;30.10;99.90;;;;;;5092905;28;20194;-80
2021/08/03 10:47:46;;;;;;;5.25;3.15;;;29.90;99.90;;;;;;5097128;28;20265;-80
2021/08/03 10:50:26;;;;;;;4.80;2.90;;;29.40;99.90;;;;;;5096410;28;20196;-80
2021/08/03 10:52:54;;;;;;;4.05;2.58;;;29.50;99.90;;;;;;5101674;28;20225;-80
2021/08/03 10:55:36;;;;;;;5.35;2.80;;;29.20;99.90;;;;;;5093593;28;20187;-80
2021/08/03 10:58:22;;;;;;;4.40;2.83;;;29.80;99.90;;;;;;5092811;28;20263;-80
2021/08/03 11:00:51;;;;;;;4.95;2.90;;;31.40;99.90;;;;;;5093657;28;20222;-80
2021/08/03 11:03:44;;;;;;;7.80;2.78;;;31.70;99.90;;;;;;5093468;28;20240;-80
2021/08/03 11:06:38;;;;;;;4.78;3.70;;;31.70;99.90;;;;;;5097038;28;20191;-80
2021/08/03 11:09:36;;;;;;;4.88;4.03;;;30.30;99.90;;;;;;5093147;28;20223;-80
2021/08/03 11:12:38;;;;;;;8.18;4.00;;;32.00;99.90;;;;;;5096529;28;20297;-81
2021/08/03 11:15:39;;;;;;;6.47;3.88;;;33.90;99.90;;;;;;5113249;28;20300;-80
2021/08/03 11:18:10;;;;;;;9.73;3.67;;;33.70;99.90;;;;;;5100647;28;20229;-81
2021/08/03 11:21:00;;;;;;;7.10;3.30;;;34.60;99.90;;;;;;5111742;28;20215;-80
2021/08/03 11:24:03;;;;;;;4.13;3.72;;;36.10;99.90;;;;;;5112811;28;20198;-80
2021/08/03 11:26:33;;;;;;;6.10;3.88;;;37.90;98.90;;;;;;5112672;28;20259;-80
2021/08/03 11:29:02;;;;;;;6.70;3.90;;;35.60;97.10;;;;;;5112220;28;20694;-81
2021/08/03 11:31:54;;;;;;;8.52;4.20;;;30.40;99.90;;;;;;5113474;28;20201;-81
2021/08/03 11:34:26;;;;;;;4.38;3.85;;;27.20;99.90;;;;;;5097848;28;20722;-79
2021/08/03 11:37:16;;;;;;;5.55;4.00;;;25.10;99.90;;;;;;5108347;28;20216;-79
2021/08/03 11:40:02;;;;;;;5.43;4.40;;;23.60;99.90;;;;;;5109677;28;20205;-79
2021/08/03 11:42:40;;;;;;;8.98;4.95;;;26.00;99.90;;;;;;5098672;28;20377;-80
2021/08/03 11:45:12;;;;;;;4.38;3.97;;;27.50;99.90;;;;;;5095552;28;20205;-79
2021/08/03 11:47:47;;;;;;;9.35;4.47;;;27.20;99.90;;;;;;5094509;28;20201;-80
2021/08/03 11:50:16;;;;;;;5.20;4.10;;;27.30;99.90;;;;;;5092363;28;20210;-80
2021/08/03 11:52:43;;;;;;;5.47;4.95;;;28.00;99.90;;;;;;5093742;28;20639;-79
2021/08/03 11:55:15;;;;;;;7.63;5.25;;;28.80;99.90;;;;;;5094425;28;20281;-80
2021/08/03 11:57:42;;;;;;;6.85;5.85;;;30.20;99.90;;;;;;5097579;28;20202;-80
2021/08/03 12:00:18;;;;;;;10.50;5.63;;;30.20;99.90;;;;;;5095917;28;20191;-80
2021/08/03 12:02:47;;;;;;;6.53;5.32;;;31.30;99.90;;;;;;5096697;28;20203;-80
2021/08/03 12:05:17;;;;;;;4.65;4.25;;;31.70;99.90;;;;;;5092888;28;20290;-80
2021/08/03 12:07:53;;;;;;;6.03;5.43;;;32.80;99.90;;;;;;5094333;28;20282;-80
2021/08/03 12:10:24;;;;;;;6.53;4.57;;;32.90;99.90;;;;;;5109197;28;20785;-80
2021/08/03 12:12:52;;;;;;;7.85;5.47;;;33.80;99.90;;;;;;5101618;28;20201;-80
2021/08/03 12:15:21;;;;;;;8.50;5.45;;;33.40;99.90;;;;;;5101842;28;20682;-81
2021/08/03 12:17:49;;;;;;;5.25;4.72;;;33.50;99.90;;;;;;5085841;28;20213;-81
2021/08/03 12:20:33;;;;;;;6.13;4.60;;;33.30;99.90;;;;;;5102724;28;20592;-81
2021/08/03 12:23:15;;;;;;;8.20;4.53;;;32.20;99.90;;;;;;5101469;28;20198;-80
2021/08/03 12:25:55;;;;;;;6.93;5.30;;;31.00;99.90;;;;;;5116523;28;20200;-81
2021/08/03 12:28:39;;;;;;;7.45;5.40;;;28.40;99.90;;;;;;5110851;28;20281;-80
2021/08/03 12:31:25;;;;;;;8.32;5.47;;;26.50;99.90;;;;;;5116439;28;20561;-81
2021/08/03 12:33:53;;;;;;;8.68;5.20;;;24.50;99.90;;;;;;5113818;28;20278;-81
2021/08/03 12:36:21;;;;;;;7.57;4.75;;;25.60;99.90;;;;;;5114244;28;20225;-80
2021/08/03 12:39:06;;;;;;;8.15;5.72;;;27.20;99.90;;;;;;5114718;28;20286;-81
2021/08/03 12:41:35;;;;;;;5.70;4.40;;;27.30;99.90;;;;;;5110405;28;20206;-81
2021/08/03 12:44:03;;;;;;;6.78;5.20;;;28.30;99.90;;;;;;5115250;28;20288;-82
2021/08/03 12:46:35;;;;;;;6.93;5.28;;;28.90;99.90;;;;;;5114138;28;20224;-81
2021/08/03 12:49:02;;;;;;;6.95;5.35;;;29.20;99.90;;;;;;5114596;28;20253;-81
2021/08/03 12:51:31;;;;;;;6.03;4.72;;;29.30;99.90;;;;;;5114073;28;20241;-81
2021/08/03 12:54:15;;;;;;;8.38;5.30;;;28.80;99.90;;;;;;5116414;28;20281;-81
2021/08/03 12:56:58;;;;;;;7.55;5.00;;;27.90;99.90;;;;;;5103062;28;20285;-81
2021/08/03 12:59:41;;;;;;;8.68;5.32;;;28.00;99.90;;;;;;5105989;28;20202;-81
2021/08/03 13:02:12;;;;;;;8.40;4.68;;;28.10;99.90;;;;;;5115253;28;20670;-81